Time;durP1;ratioP1;P1;durP2;ratioP2;P2;SDS_P1;SDS_P2;PMS_P1;PMS_P2;Temp;Humidity;BMP_temperature;BMP_pressure;BME280_temperature;BME280_humidity;BME280_pressure;Samples;Min_cycle;Max_cycle;Signal;HPM_P1;HPM_P2
2023/07/11 00:01:14;;;;;;;12.95;10.20;;;;;;;19.64;100.00;100499.34;5112900;28;19907;-76
2023/07/11 00:03:39;;;;;;;11.60;9.13;;;;;;;19.63;100.00;100499.88;5112361;28;20384;-75
2023/07/11 00:06:09;;;;;;;13.90;9.20;;;;;;;19.62;100.00;100496.19;5112570;28;20027;-76
2023/07/11 00:08:38;;;;;;;10.02;9.02;;;;;;;19.60;100.00;100496.00;5095492;28;20251;-77
2023/07/11 00:11:07;;;;;;;10.82;9.57;;;;;;;19.60;100.00;100498.88;5112086;28;20126;-75
2023/07/11 00:13:32;;;;;;;10.77;9.18;;;;;;;19.57;100.00;100499.19;5112302;28;20027;-76
2023/07/11 00:16:04;;;;;;;12.38;8.52;;;;;;;19.54;100.00;100506.88;5107534;28;20043;-76
2023/07/11 00:18:32;;;;;;;11.90;8.57;;;;;;;19.49;100.00;100504.84;5112401;28;20047;-76
2023/07/11 00:20:59;;;;;;;9.90;8.00;;;;;;;19.39;100.00;100510.28;5093705;28;20054;-76
2023/07/11 00:23:26;;;;;;;12.27;8.93;;;;;;;19.36;100.00;100517.16;5112204;28;20028;-75
2023/07/11 00:25:52;;;;;;;8.80;7.90;;;;;;;19.35;100.00;100518.50;5112169;28;20044;-75
2023/07/11 00:28:19;;;;;;;9.32;8.18;;;;;;;19.36;100.00;100520.06;5113764;28;20027;-75
2023/07/11 00:30:47;;;;;;;11.70;8.02;;;;;;;19.36;100.00;100520.06;5112409;28;20380;-76
2023/07/11 00:33:12;;;;;;;10.65;8.50;;;;;;;19.38;100.00;100529.00;5112300;28;20447;-75
2023/07/11 00:35:39;;;;;;;12.68;9.07;;;;;;;19.40;100.00;100529.25;5113505;28;20103;-76
2023/07/11 00:38:06;;;;;;;10.73;8.75;;;;;;;19.38;100.00;100525.31;5095255;28;20128;-75
2023/07/11 00:40:32;;;;;;;11.13;8.35;;;;;;;19.32;100.00;100536.97;5113384;28;20027;-75
2023/07/11 00:43:01;;;;;;;9.88;8.23;;;;;;;19.30;100.00;100539.66;5112022;28;20042;-77
2023/07/11 00:45:57;;;;;;;9.52;8.57;;;;;;;19.27;100.00;100540.75;5113692;28;20028;-75
2023/07/11 00:48:23;;;;;;;10.65;8.20;;;;;;;19.24;100.00;100538.94;5112132;28;20039;-76
2023/07/11 00:50:50;;;;;;;11.98;8.52;;;;;;;19.17;100.00;100545.34;5112102;28;20028;-76
2023/07/11 00:53:18;;;;;;;9.77;8.43;;;;;;;19.20;100.00;100544.28;5112180;28;20058;-76
2023/07/11 00:55:45;;;;;;;11.15;9.30;;;;;;;19.18;100.00;100546.94;5095168;28;20043;-76
2023/07/11 00:58:12;;;;;;;11.07;8.05;;;;;;;19.15;100.00;100558.84;5113151;28;20031;-75
2023/07/11 01:00:38;;;;;;;9.77;7.85;;;;;;;19.11;100.00;100545.44;5113616;28;20020;-77
2023/07/11 01:03:04;;;;;;;10.75;8.55;;;;;;;19.09;100.00;100538.59;5115325;28;20476;-76
2023/07/11 01:05:30;;;;;;;9.05;8.13;;;;;;;19.09;100.00;100550.97;5117673;28;20038;-76
2023/07/11 01:07:56;;;;;;;13.90;8.70;;;;;;;19.08;100.00;100545.72;5117552;28;20039;-76
2023/07/11 01:10:22;;;;;;;10.43;8.80;;;;;;;19.08;100.00;100549.41;5098418;28;20044;-75
2023/07/11 01:12:49;;;;;;;11.95;9.07;;;;;;;19.03;100.00;100558.16;5117070;28;20058;-76
2023/07/11 01:15:16;;;;;;;14.18;9.15;;;;;;;19.01;100.00;100563.72;5116957;28;20456;-75
2023/07/11 01:17:42;;;;;;;14.40;9.48;;;;;;;18.94;100.00;100565.13;5115452;28;20035;-76
2023/07/11 01:20:10;;;;;;;10.90;8.55;;;;;;;18.91;100.00;100568.34;5098421;28;20020;-75
2023/07/11 01:22:37;;;;;;;10.52;9.48;;;;;;;18.84;100.00;100581.31;5115157;28;20472;-75
2023/07/11 01:25:22;;;;;;;12.57;9.45;;;;;;;18.84;100.00;100581.31;5109748;28;20032;-74
2023/07/11 01:27:51;;;;;;;10.75;9.43;;;;;;;18.79;100.00;100575.56;5113150;28;20035;-76
2023/07/11 01:30:20;;;;;;;11.77;9.73;;;;;;;18.79;100.00;100579.25;5115174;28;20027;-76
2023/07/11 01:32:48;;;;;;;11.77;9.32;;;;;;;18.78;100.00;100577.69;5079899;28;20446;-76
2023/07/11 01:35:16;;;;;;;12.88;10.20;;;;;;;18.79;100.00;100584.25;5114814;28;20023;-75
2023/07/11 01:37:42;;;;;;;12.65;10.20;;;;;;;18.78;100.00;100582.69;5115000;28;20023;-77
2023/07/11 01:40:09;;;;;;;12.52;10.07;;;;;;;18.79;100.00;100584.25;5113649;28;20019;-75
2023/07/11 01:42:35;;;;;;;13.55;9.90;;;;;;;18.80;100.00;100585.84;5114496;28;20122;-76
2023/07/11 01:45:00;;;;;;;12.60;8.98;;;;;;;18.83;100.00;100588.41;5113625;28;20099;-77
2023/07/11 01:47:26;;;;;;;14.38;10.35;;;;;;;18.79;100.00;100582.16;5114281;28;20032;-77
2023/07/11 01:49:51;;;;;;;10.43;9.27;;;;;;;18.80;100.00;100571.34;5114742;28;20086;-77
2023/07/11 01:52:20;;;;;;;13.68;10.38;;;;;;;18.69;100.00;100578.84;5114532;28;20040;-76
2023/07/11 01:54:56;;;;;;;11.48;10.27;;;;;;;18.65;100.00;100578.38;5114971;28;20023;-75
2023/07/11 01:57:24;;;;;;;11.18;9.52;;;;;;;18.66;100.00;100567.56;5114932;28;20027;-76
2023/07/11 01:59:51;;;;;;;15.00;10.00;;;;;;;18.57;100.00;100576.63;5114314;28;20035;-76
2023/07/11 02:02:18;;;;;;;10.45;9.45;;;;;;;18.52;100.00;100560.09;5115445;28;20333;-76
2023/07/11 02:04:44;;;;;;;14.52;10.10;;;;;;;18.51;100.00;100570.09;5116041;28;20026;-76
2023/07/11 02:07:09;;;;;;;12.02;9.80;;;;;;;18.49;100.00;100573.53;5115782;28;20114;-76
2023/07/11 02:09:38;;;;;;;14.60;10.40;;;;;;;18.46;100.00;100585.41;5115535;28;20035;-75
2023/07/11 02:12:05;;;;;;;11.07;9.88;;;;;;;18.41;100.00;100586.25;5113901;28;20189;-75
2023/07/11 02:14:30;;;;;;;13.05;9.98;;;;;;;18.37;100.00;100585.78;5079196;28;20081;-76
2023/07/11 02:16:56;;;;;;;12.75;10.18;;;;;;;18.30;100.00;100578.44;5096964;28;20027;-76
2023/07/11 02:19:23;;;;;;;12.88;10.32;;;;;;;18.25;100.00;100585.84;5115422;28;20024;-76
2023/07/11 02:21:49;;;;;;;11.40;10.18;;;;;;;18.22;100.00;100586.16;5097237;28;20046;-75
2023/07/11 02:24:16;;;;;;;12.05;10.13;;;;;;;18.21;100.00;100584.56;5114249;28;20377;-75
2023/07/11 02:26:43;;;;;;;11.95;10.00;;;;;;;18.30;100.00;100583.44;5097220;28;20033;-75
2023/07/11 02:29:10;;;;;;;12.57;10.40;;;;;;;18.34;100.00;100593.41;5096941;28;20353;-75
2023/07/11 02:31:36;;;;;;;15.27;11.75;;;;;;;18.35;100.00;100586.31;5115466;28;20080;-76
2023/07/11 02:34:03;;;;;;;15.23;11.13;;;;;;;18.32;100.00;100584.50;5114406;28;20069;-77
2023/07/11 02:36:31;;;;;;;13.63;10.55;;;;;;;18.28;100.00;100586.84;5115267;28;20019;-77
2023/07/11 02:38:57;;;;;;;12.80;11.40;;;;;;;18.29;100.00;100594.22;5114006;28;20031;-78
2023/07/11 02:41:22;;;;;;;14.68;10.45;;;;;;;18.25;100.00;100590.84;5114054;28;20024;-75
2023/07/11 02:43:49;;;;;;;17.60;11.88;;;;;;;18.20;100.00;100595.38;5096797;28;20153;-75
2023/07/11 02:46:15;;;;;;;12.48;10.93;;;;;;;18.19;100.00;100598.78;5096646;28;20026;-76
2023/07/11 02:48:42;;;;;;;13.10;11.40;;;;;;;18.12;100.00;100593.59;5113937;28;20466;-76
2023/07/11 02:51:09;;;;;;;13.32;11.48;;;;;;;18.08;100.00;100599.66;5130661;27;20080;-75
2023/07/11 02:53:36;;;;;;;15.95;11.18;;;;;;;18.06;100.00;100605.22;5113613;28;20027;-76
2023/07/11 02:56:04;;;;;;;13.73;10.75;;;;;;;18.05;100.00;100605.75;5079658;28;20039;-75
2023/07/11 02:58:30;;;;;;;14.10;11.23;;;;;;;18.02;100.00;100607.63;5110417;28;20028;-76
2023/07/11 03:00:59;;;;;;;13.05;11.65;;;;;;;18.04;100.00;100601.28;5130523;27;20028;-76
2023/07/11 03:03:26;;;;;;;15.95;11.35;;;;;;;18.13;100.00;100606.72;5096816;28;20032;-75
2023/07/11 03:05:52;;;;;;;15.85;13.63;;;;;;;18.07;100.00;100609.69;5096749;28;20099;-75
2023/07/11 03:08:18;;;;;;;16.25;13.48;;;;;;;17.97;100.00;100605.56;5114519;28;20024;-76
2023/07/11 03:10:44;;;;;;;16.42;13.30;;;;;;;17.98;100.00;100612.13;5112770;27;20135;-76
2023/07/11 03:13:10;;;;;;;16.75;12.38;;;;;;;17.93;100.00;100613.72;5114723;28;20015;-76
2023/07/11 03:15:37;;;;;;;18.85;12.43;;;;;;;17.98;100.00;100617.91;5114662;28;20020;-76
2023/07/11 03:18:03;;;;;;;17.63;12.60;;;;;;;18.02;100.00;100612.63;5096177;28;20539;-76
2023/07/11 03:20:29;;;;;;;13.68;12.25;;;;;;;18.02;100.00;100624.97;5096023;28;20115;-75
2023/07/11 03:22:54;;;;;;;16.95;11.77;;;;;;;18.03;100.00;100623.63;5113055;28;20383;-75
2023/07/11 03:25:22;;;;;;;14.20;12.25;;;;;;;18.04;100.00;100630.19;5112684;28;20083;-75
2023/07/11 03:27:47;;;;;;;13.90;11.68;;;;;;;18.05;100.00;100626.00;5114449;28;20428;-76
2023/07/11 03:30:13;;;;;;;14.15;12.00;;;;;;;18.08;100.00;100628.59;5114396;28;20051;-76
2023/07/11 03:32:39;;;;;;;18.15;12.65;;;;;;;18.06;100.00;100636.25;5113970;28;20109;-75
2023/07/11 03:35:06;;;;;;;15.20;12.52;;;;;;;18.07;100.00;100627.03;5129097;27;20028;-76
2023/07/11 03:37:32;;;;;;;21.65;11.93;;;;;;;18.09;100.00;100630.16;5114310;28;20030;-77
2023/07/11 03:39:58;;;;;;;17.73;11.80;;;;;;;18.12;100.00;100637.00;5113949;28;20015;-77
2023/07/11 03:42:25;;;;;;;15.48;11.68;;;;;;;18.15;100.00;100630.91;5112841;28;20042;-76
2023/07/11 03:44:51;;;;;;;13.45;11.52;;;;;;;18.18;100.00;100644.28;5112669;28;20023;-75
2023/07/11 03:47:17;;;;;;;14.32;12.15;;;;;;;18.19;100.00;100647.97;5113871;28;20039;-77
2023/07/11 03:49:44;;;;;;;16.23;11.93;;;;;;;18.20;100.00;100638.75;5113029;28;20030;-77
2023/07/11 03:52:09;;;;;;;13.55;11.25;;;;;;;18.24;100.00;100644.25;5111623;28;20091;-77
2023/07/11 03:54:35;;;;;;;13.05;11.57;;;;;;;18.28;100.00;100653.41;5113816;28;20020;-76
2023/07/11 03:57:02;;;;;;;17.58;11.10;;;;;;;18.27;100.00;100648.97;5113742;28;20035;-77
2023/07/11 03:59:28;;;;;;;17.60;11.60;;;;;;;18.30;100.00;100653.66;5114039;28;20028;-77
2023/07/11 04:01:54;;;;;;;12.45;11.10;;;;;;;18.30;100.00;100649.97;5113012;28;20069;-76
2023/07/11 04:04:20;;;;;;;17.85;13.00;;;;;;;18.35;100.00;100658.66;5095258;28;20016;-77
2023/07/11 04:06:46;;;;;;;15.02;11.27;;;;;;;18.39;100.00;100650.47;5113293;28;20028;-75
2023/07/11 04:09:12;;;;;;;12.75;11.32;;;;;;;18.42;100.00;100649.41;5113208;28;20095;-77
2023/07/11 04:11:37;;;;;;;17.88;11.20;;;;;;;18.45;100.00;100654.09;5113403;28;20475;-76
2023/07/11 04:14:04;;;;;;;14.27;11.93;;;;;;;18.50;100.00;100658.25;5112321;28;20039;-76
2023/07/11 04:16:31;;;;;;;13.50;10.75;;;;;;;18.48;100.00;100661.69;5113651;28;20051;-76
2023/07/11 04:19:11;;;;;;;14.73;11.32;;;;;;;18.53;100.00;100663.75;5113989;28;20164;-76
2023/07/11 04:21:36;;;;;;;15.13;11.32;;;;;;;18.52;100.00;100659.28;5095305;28;20420;-75
2023/07/11 04:24:06;;;;;;;15.20;10.35;;;;;;;18.52;100.00;100662.16;5113883;28;20026;-76
2023/07/11 04:26:32;;;;;;;14.38;10.60;;;;;;;18.54;100.00;100665.31;5113487;28;20498;-76
2023/07/11 04:28:58;;;;;;;13.00;10.93;;;;;;;18.47;100.00;100650.66;5113460;28;20036;-74
2023/07/11 04:31:40;;;;;;;12.32;10.55;;;;;;;18.59;100.00;100660.81;5113467;28;20442;-75
2023/07/11 04:34:08;;;;;;;;;;;;;;;18.63;100.00;100664.97;5113855;28;20035;-75
2023/07/11 04:36:42;;;;;;;13.25;9.55;;;;;;;18.66;100.00;100671.81;5114603;27;19908;-76
2023/07/11 04:39:10;;;;;;;13.15;9.65;;;;;;;18.72;100.00;100666.75;5117690;27;20035;-76
2023/07/11 04:41:35;;;;;;;11.23;9.98;;;;;;;18.81;100.00;100671.38;5116180;28;20023;-76
2023/07/11 04:44:00;;;;;;;11.57;9.68;;;;;;;18.90;100.00;100665.22;5116862;28;20032;-76
2023/07/11 04:46:26;;;;;;;12.52;9.32;;;;;;;18.95;100.00;100667.28;5117685;28;20015;-75
2023/07/11 04:48:52;;;;;;;12.32;8.93;;;;;;;19.00;100.00;100672.22;5117373;28;20506;-75
2023/07/11 04:51:17;;;;;;;10.00;7.57;;;;;;;19.12;100.00;100671.56;5117071;27;20531;-75
2023/07/11 04:53:44;;;;;;;11.98;8.13;;;;;;;19.20;100.00;100673.88;5117271;28;20103;-75
2023/07/11 04:56:11;;;;;;;11.50;8.40;;;;;;;19.32;100.00;100670.28;5117184;28;20106;-76
2023/07/11 04:58:44;;;;;;;10.30;7.82;;;;;;;19.37;100.00;100677.34;5095433;28;20036;-77
2023/07/11 05:01:13;;;;;;;9.32;8.40;;;;;;;19.45;100.00;100667.50;5116885;28;20533;-75
2023/07/11 05:03:40;;;;;;;11.35;8.55;;;;;;;19.49;100.00;100679.56;5115764;28;20034;-76
2023/07/11 05:06:07;;;;;;;10.65;8.20;;;;;;;19.53;100.00;100676.34;5115593;28;20066;-78
2023/07/11 05:08:33;;;;;;;10.23;8.02;;;;;;;19.61;100.00;100670.75;5104020;28;20444;-76
2023/07/11 05:11:03;;;;;;;12.93;9.27;;;;;;;19.60;100.00;100674.97;5116567;28;20039;-76
2023/07/11 05:13:50;;;;;;;10.95;7.20;;;;;;;19.67;100.00;100678.00;5116653;28;20355;-78
2023/07/11 05:16:21;;;;;;;14.93;7.80;;;;;;;19.75;100.00;100670.28;5116805;28;20107;-76
2023/07/11 05:18:48;;;;;;;11.15;7.47;;;;;;;19.82;100.00;100671.75;5116948;28;20502;-77
2023/07/11 05:21:30;;;;;;;14.15;7.20;;;;;;;19.93;100.00;100672.41;5115952;28;20107;-74
2023/07/11 05:24:01;;;;;;;14.15;7.20;;;;;;;19.99;100.00;100674.44;5116751;28;20019;-73
2023/07/11 05:26:29;;;;;;;11.98;6.90;;;;;;;20.02;100.00;100676.22;5116427;28;20028;-74
2023/07/11 05:28:56;;;;;;;6.82;6.03;;;;;;;20.08;100.00;100674.03;5115021;28;20114;-72
2023/07/11 05:31:22;;;;;;;8.70;6.75;;;;;;;20.10;100.00;100663.44;5114010;28;20106;-75
2023/07/11 05:34:04;;;;;;;11.05;6.45;;;;;;;20.37;100.00;100673.81;5116599;28;20073;-72
2023/07/11 05:36:36;;;;;;;9.68;6.93;;;;;;;20.53;100.00;100671.19;5116592;28;20050;-73
2023/07/11 05:39:10;;;;;;;;;;;;;;;20.65;100.00;100673.31;5117165;28;20108;-72
2023/07/11 05:41:37;;;;;;;15.95;6.97;;;;;;;20.76;100.00;100673.16;5116340;28;20409;-71
2023/07/11 05:44:04;;;;;;;8.98;5.38;;;;;;;20.84;100.00;100670.41;5115324;28;20027;-73
2023/07/11 05:46:44;;;;;;;8.45;6.10;;;;;;;20.93;100.00;100669.97;5116787;28;20019;-73
2023/07/11 05:49:12;;;;;;;14.15;6.00;;;;;;;21.00;100.00;100672.19;5115988;28;20355;-75
2023/07/11 05:51:40;;;;;;;8.90;5.88;;;;;;;21.20;100.00;100668.63;5116000;28;20374;-73
2023/07/11 05:54:27;;;;;;;9.45;6.05;;;;;;;21.19;100.00;100669.16;5114989;28;20020;-75
2023/07/11 05:56:55;;;;;;;14.45;6.25;;;;;;;21.41;100.00;100671.63;5113904;28;20520;-75
2023/07/11 05:59:20;;;;;;;6.78;5.00;;;;;;;21.55;100.00;100664.47;5113949;28;20035;-76
2023/07/11 06:01:45;;;;;;;9.20;5.00;;;;;;;21.92;100.00;100675.03;5110039;28;20040;-72
2023/07/11 06:04:13;;;;;;;9.63;4.80;;;;;;;22.62;100.00;100669.34;5114590;28;20449;-72
2023/07/11 06:06:44;;;;;;;8.48;4.75;;;;;;;23.62;100.00;100671.66;5113471;28;20027;-72
2023/07/11 06:09:20;;;;;;;11.77;3.87;;;;;;;24.75;100.00;100667.47;5114410;28;20042;-75
2023/07/11 06:11:47;;;;;;;10.80;4.60;;;;;;;25.73;100.00;100654.81;5115478;28;20303;-76
2023/07/11 06:14:16;;;;;;;8.43;5.60;;;;;;;26.95;100.00;100652.69;5114375;28;20023;-77
2023/07/11 06:16:43;;;;;;;6.95;4.15;;;;;;;28.35;100.00;100667.47;5114429;28;20138;-78
2023/07/11 06:19:14;;;;;;;7.47;4.18;;;;;;;29.46;90.09;100660.88;5114551;28;20031;-77
2023/07/11 06:21:40;;;;;;;;;;;;;;;30.29;82.17;100667.97;5114592;27;20039;-76
2023/07/11 06:24:06;;;;;;;9.52;3.70;;;;;;;31.27;83.25;100661.81;5114276;28;19908;-78
2023/07/11 06:26:34;;;;;;;8.00;4.43;;;;;;;32.44;79.37;100666.03;5113077;28;20032;-77
2023/07/11 06:28:59;;;;;;;6.20;3.20;;;;;;;33.29;67.83;100668.53;5114034;28;20035;-77
2023/07/11 06:31:33;;;;;;;10.55;3.80;;;;;;;33.92;53.42;100667.16;5113919;28;20536;-76
2023/07/11 06:34:07;;;;;;;6.22;3.55;;;;;;;34.33;47.44;100669.56;5114105;28;20114;-77
2023/07/11 06:36:33;;;;;;;5.10;2.70;;;;;;;34.36;45.41;100662.31;5114154;28;20461;-76
2023/07/11 06:38:58;;;;;;;4.03;2.72;;;;;;;34.62;45.47;100669.00;5113680;28;20080;-76
2023/07/11 06:41:24;;;;;;;5.03;3.20;;;;;;;35.23;42.76;100670.16;5114211;28;20042;-77
2023/07/11 06:43:50;;;;;;;5.47;3.00;;;;;;;35.93;42.45;100664.19;5114375;28;20028;-77
2023/07/11 06:46:16;;;;;;;4.72;3.50;;;;;;;36.47;40.46;100659.47;5115117;28;20023;-75
2023/07/11 06:48:43;;;;;;;8.27;4.05;;;;;;;36.42;39.70;100664.44;5115173;28;20031;-76
2023/07/11 06:51:09;;;;;;;5.22;3.22;;;;;;;36.98;39.39;100661.88;5115086;28;20115;-77
2023/07/11 06:53:36;;;;;;;3.38;2.78;;;;;;;37.21;35.54;100662.22;5113531;28;20024;-78
2023/07/11 06:56:04;;;;;;;3.50;3.00;;;;;;;36.37;33.67;100658.94;5115065;28;20031;-78
2023/07/11 06:58:44;;;;;;;5.15;2.80;;;;;;;35.63;34.59;100659.66;5113917;28;20031;-77
2023/07/11 07:01:12;;;;;;;8.05;3.10;;;;;;;35.58;36.65;100658.69;5130375;27;20020;-77
2023/07/11 07:03:38;;;;;;;4.38;3.08;;;;;;;35.90;34.81;100662.53;5096577;28;20047;-76
2023/07/11 07:06:06;;;;;;;6.05;3.10;;;;;;;36.40;36.94;100661.34;5114862;28;20349;-76
2023/07/11 07:08:32;;;;;;;6.00;3.25;;;;;;;37.10;34.72;100654.25;5113425;28;20027;-76
2023/07/11 07:10:59;;;;;;;7.78;3.17;;;;;;;37.91;35.17;100663.09;5113077;28;20051;-76
2023/07/11 07:13:27;;;;;;;4.22;2.70;;;;;;;38.41;32.57;100650.25;5114457;28;20080;-76
2023/07/11 07:15:58;;;;;;;4.13;2.75;;;;;;;38.78;31.07;100661.44;5114337;28;20019;-76
2023/07/11 07:18:25;;;;;;;5.32;2.88;;;;;;;38.88;31.10;100649.88;5113858;28;20054;-75
2023/07/11 07:20:52;;;;;;;6.10;2.67;;;;;;;39.03;30.81;100650.41;5114570;28;20028;-76
2023/07/11 07:23:19;;;;;;;4.28;3.05;;;;;;;39.27;29.45;100628.19;5114462;28;20030;-73
2023/07/11 07:25:53;;;;;;;3.63;2.50;;;;;;;38.98;29.06;100634.56;5113057;28;20022;-75
2023/07/11 07:28:19;;;;;;;3.65;3.00;;;;;;;39.24;30.38;100637.78;5112924;28;20123;-75
2023/07/11 07:30:46;;;;;;;8.02;2.75;;;;;;;39.70;29.65;100645.44;5114133;28;20055;-75
2023/07/11 07:33:11;;;;;;;4.75;2.83;;;;;;;40.31;28.73;100631.78;5114280;28;20019;-75
2023/07/11 07:35:37;;;;;;;4.32;3.00;;;;;;;40.91;27.86;100620.91;5114253;28;20522;-76
2023/07/11 07:38:03;;;;;;;4.43;2.95;;;;;;;40.90;25.67;100623.13;5129914;27;20054;-76
2023/07/11 07:40:29;;;;;;;3.13;2.28;;;;;;;40.87;25.85;100617.78;5114047;28;20098;-76
2023/07/11 07:42:55;;;;;;;4.72;2.80;;;;;;;40.52;26.10;100609.97;5114247;28;20440;-75
2023/07/11 07:45:20;;;;;;;10.85;2.75;;;;;;;40.39;26.30;100614.03;5113047;28;20053;-74
2023/07/11 07:47:47;;;;;;;5.25;2.70;;;;;;;40.26;25.66;100615.88;5128558;27;20023;-73
2023/07/11 07:50:14;;;;;;;9.55;3.20;;;;;;;40.36;23.77;100612.47;5133318;27;20039;-73
2023/07/11 07:52:41;;;;;;;7.43;2.83;;;;;;;40.55;26.02;100612.31;5134833;27;20023;-73
2023/07/11 07:55:08;;;;;;;4.00;2.30;;;;;;;40.63;24.80;100615.53;5132874;27;20059;-73
2023/07/11 07:57:36;;;;;;;6.15;2.38;;;;;;;40.94;24.02;100601.47;5116049;28;20470;-73
2023/07/11 08:00:02;;;;;;;3.53;2.50;;;;;;;39.98;25.65;100603.75;5133076;28;20054;-72
2023/07/11 08:02:31;;;;;;;3.95;2.28;;;;;;;40.75;24.30;100602.44;5133040;28;20034;-74
2023/07/11 08:04:58;;;;;;;4.83;2.30;;;;;;;40.68;25.27;100603.72;5133659;28;20043;-75
2023/07/11 08:07:26;;;;;;;2.22;2.00;;;;;;;41.31;24.57;100604.06;5133305;28;20090;-73
2023/07/11 08:09:56;;;;;;;3.55;2.33;;;;;;;41.89;22.87;100595.09;5134418;27;20023;-74
2023/07/11 08:12:22;;;;;;;;;;;;;;;42.34;23.43;100596.94;5135303;27;20051;-74
2023/07/11 08:14:50;;;;;;;2.33;1.90;;;;;;;42.44;20.62;100593.41;5138593;27;20283;-72
2023/07/11 08:17:15;;;;;;;3.80;1.70;;;;;;;42.30;22.03;100588.63;5138412;27;20020;-73
2023/07/11 08:19:53;;;;;;;3.47;2.40;;;;;;;42.43;22.30;100583.63;5137227;27;20033;-74
2023/07/11 08:22:18;;;;;;;3.05;2.10;;;;;;;42.17;22.50;100586.00;5138342;27;20110;-73
2023/07/11 08:24:45;;;;;;;2.35;2.15;;;;;;;42.04;22.86;100593.19;5138221;27;20107;-73
2023/07/11 08:27:12;;;;;;;6.40;2.53;;;;;;;42.38;22.89;100593.25;5138394;27;20471;-73
2023/07/11 08:29:40;;;;;;;2.88;2.33;;;;;;;42.35;22.03;100586.47;5133798;27;20440;-73
2023/07/11 08:32:07;;;;;;;4.65;2.42;;;;;;;41.73;22.50;100585.66;5137627;27;20035;-72
2023/07/11 08:34:32;;;;;;;5.97;2.28;;;;;;;42.19;22.70;100586.06;5138312;27;20034;-72
2023/07/11 08:36:58;;;;;;;3.03;1.88;;;;;;;42.15;21.88;100580.72;5136747;27;20023;-73
2023/07/11 08:39:25;;;;;;;5.55;1.98;;;;;;;41.44;21.88;100581.91;5138077;27;20035;-74
2023/07/11 08:41:52;;;;;;;2.97;2.10;;;;;;;41.56;22.33;100578.50;5118396;27;20093;-74
2023/07/11 08:44:47;;;;;;;5.18;2.22;;;;;;;41.58;22.49;100569.53;5099453;28;20114;-76
2023/07/11 08:47:23;;;;;;;4.80;2.05;;;;;;;41.41;21.40;100574.34;5109730;28;20047;-74
2023/07/11 08:49:55;;;;;;;8.85;2.33;;;;;;;41.43;21.15;100574.38;5116066;28;20016;-74
2023/07/11 08:52:30;;;;;;;5.25;2.17;;;;;;;41.41;21.96;100571.31;5117402;28;20031;-74
2023/07/11 08:55:01;;;;;;;3.22;1.85;;;;;;;41.34;20.29;100578.63;5117555;28;20030;-74
2023/07/11 08:57:29;;;;;;;4.20;1.80;;;;;;;40.68;20.17;100564.75;5117406;28;20023;-74
2023/07/11 09:00:19;;;;;;;7.05;2.28;;;;;;;40.28;22.49;100571.03;5099331;28;20174;-74
2023/07/11 09:02:51;;;;;;;2.90;2.15;;;;;;;40.32;22.71;100576.38;5117334;28;20026;-72
2023/07/11 09:05:42;;;;;;;2.90;1.90;;;;;;;40.17;22.26;100572.91;5117226;28;20016;-74
2023/07/11 09:08:17;;;;;;;3.85;1.95;;;;;;;39.70;22.47;100560.84;5111561;28;20078;-73
2023/07/11 09:11:10;;;;;;;3.40;2.03;;;;;;;39.19;22.78;100564.31;5116887;28;20055;-74
2023/07/11 09:13:57;;;;;;;3.40;1.83;;;;;;;38.88;21.70;100559.44;5116752;28;20519;-74
2023/07/11 09:16:40;;;;;;;6.95;1.92;;;;;;;38.53;21.83;100567.09;5116129;28;20035;-74
2023/07/11 09:19:20;;;;;;;5.35;1.75;;;;;;;38.30;22.00;100564.69;5115568;28;20388;-74
2023/07/11 09:22:17;;;;;;;7.38;2.22;;;;;;;38.21;24.17;100553.88;5115950;28;20062;-73
2023/07/11 09:25:40;;;;;;;1.88;1.70;;;;;;;38.25;23.74;100568.22;5114056;28;20476;-74
2023/07/11 09:28:07;;;;;;;4.97;1.95;;;;;;;37.54;25.69;100553.31;5072093;28;20471;-74
2023/07/11 09:30:45;;;;;;;6.07;1.83;;;;;;;37.71;24.03;100553.31;5055608;28;20036;-75
2023/07/11 09:33:14;;;;;;;6.80;2.28;;;;;;;37.61;23.71;100549.13;5085983;28;20032;-74
2023/07/11 09:35:42;;;;;;;5.43;2.00;;;;;;;36.40;26.83;100545.19;5114351;28;20398;-74
2023/07/11 09:38:29;;;;;;;2.60;1.85;;;;;;;35.79;26.27;100559.34;5113873;28;20035;-73
2023/07/11 09:41:36;;;;;;;3.97;2.15;;;;;;;35.72;25.92;100551.56;5115150;28;20050;-74
2023/07/11 09:44:03;;;;;;;3.05;1.73;;;;;;;35.61;26.79;100553.25;5114519;28;20059;-73
2023/07/11 09:46:31;;;;;;;3.60;1.70;;;;;;;35.29;26.09;100551.59;5116306;28;20379;-74
2023/07/11 09:49:00;;;;;;;6.07;2.08;;;;;;;35.43;25.64;100545.59;5114734;28;20027;-74
2023/07/11 09:51:47;;;;;;;7.60;2.28;;;;;;;35.57;25.85;100543.34;5098063;28;20024;-74
2023/07/11 09:54:18;;;;;;;4.00;1.98;;;;;;;35.27;25.69;100539.56;5116287;28;20076;-73
2023/07/11 09:56:44;;;;;;;;;;;;;;;34.75;27.20;100543.50;5116537;28;20147;-74
2023/07/11 09:59:19;;;;;;;2.83;1.92;;;;;;;33.47;29.92;100539.19;5114580;27;19911;-74
2023/07/11 10:01:51;;;;;;;4.45;1.73;;;;;;;33.01;31.22;100557.91;5114666;28;20028;-74
2023/07/11 10:04:27;;;;;;;4.30;1.80;;;;;;;32.96;29.80;100546.47;5114758;28;20078;-74
2023/07/11 10:07:01;;;;;;;4.32;1.60;;;;;;;32.97;29.86;100556.91;5115801;28;20031;-74
2023/07/11 10:09:52;;;;;;;13.23;3.47;;;;;;;33.27;29.66;100555.81;5114511;28;20184;-74
2023/07/11 10:12:24;;;;;;;2.53;1.40;;;;;;;33.39;27.19;100543.88;5115466;28;20522;-75
2023/07/11 10:15:06;;;;;;;6.55;2.10;;;;;;;33.41;27.93;100547.75;5114415;28;20031;-75
2023/07/11 10:17:34;;;;;;;2.00;1.70;;;;;;;33.28;28.79;100542.50;5114396;28;20480;-74
2023/07/11 10:20:06;;;;;;;2.17;1.38;;;;;;;33.12;28.54;100552.59;5114219;28;20540;-74
2023/07/11 10:22:37;;;;;;;5.45;1.77;;;;;;;32.95;29.50;100530.09;5115687;28;20024;-75
2023/07/11 10:25:28;;;;;;;4.10;1.88;;;;;;;32.56;31.63;100535.81;5114599;28;20030;-75
2023/07/11 10:28:15;;;;;;;2.17;1.65;;;;;;;32.10;31.36;100539.53;5114487;28;20072;-73
2023/07/11 10:30:42;;;;;;;5.10;1.75;;;;;;;32.01;31.07;100540.41;5115543;28;20072;-73
2023/07/11 10:33:29;;;;;;;3.50;1.80;;;;;;;31.67;32.01;100524.94;5114210;28;20092;-74
2023/07/11 10:36:21;;;;;;;10.80;1.73;;;;;;;30.31;36.11;100537.59;5114783;28;20099;-74
2023/07/11 10:38:57;;;;;;;3.22;1.50;;;;;;;30.25;34.38;100537.16;5113957;28;20372;-74
2023/07/11 10:41:27;;;;;;;4.93;1.70;;;;;;;30.22;33.33;100517.78;5115387;28;20023;-74
2023/07/11 10:43:54;;;;;;;2.30;1.52;;;;;;;30.10;33.42;100523.53;5097140;28;20373;-74
2023/07/11 10:46:41;;;;;;;3.53;2.53;;;;;;;29.67;36.84;100528.50;5097115;28;20024;-74
2023/07/11 10:49:15;;;;;;;4.45;1.70;;;;;;;29.74;36.83;100524.56;5113892;28;20035;-74
2023/07/11 10:51:51;;;;;;;11.77;2.47;;;;;;;29.77;35.88;100529.25;5113786;28;20468;-75
2023/07/11 10:54:42;;;;;;;4.95;1.80;;;;;;;29.58;37.03;100532.97;5113674;28;20058;-75
2023/07/11 10:57:35;;;;;;;2.58;1.85;;;;;;;29.47;36.13;100518.13;5113597;28;20035;-74
2023/07/11 11:00:07;;;;;;;5.90;2.15;;;;;;;29.32;35.74;100525.13;5114509;28;20428;-75
2023/07/11 11:03:14;;;;;;;2.80;1.83;;;;;;;29.24;35.39;100521.53;5097635;28;20020;-75
2023/07/11 11:06:13;;;;;;;4.22;1.98;;;;;;;28.49;40.65;100515.72;5111572;28;20031;-75
2023/07/11 11:08:55;;;;;;;5.18;2.55;;;;;;;28.48;37.48;100508.31;5114764;28;20019;-73
2023/07/11 11:11:57;;;;;;;4.22;2.47;;;;;;;28.56;38.01;100505.22;5114419;28;20366;-74
2023/07/11 11:14:42;;;;;;;5.25;2.13;;;;;;;28.50;40.16;100505.50;5112226;28;20023;-75
2023/07/11 11:17:07;;;;;;;12.52;2.65;;;;;;;28.50;39.49;100493.75;5114880;28;20031;-73
2023/07/11 11:20:04;;;;;;;3.95;2.30;;;;;;;28.42;44.49;100501.91;5114590;28;20052;-75
2023/07/11 11:22:45;;;;;;;10.27;2.55;;;;;;;28.45;41.92;100501.44;5114199;28;20417;-77
2023/07/11 11:25:36;;;;;;;4.15;1.90;;;;;;;28.57;39.56;100489.91;5114357;28;20460;-77
2023/07/11 11:28:23;;;;;;;5.10;1.90;;;;;;;28.66;39.61;100489.13;5098539;28;20036;-78
2023/07/11 11:31:25;;;;;;;9.48;2.45;;;;;;;28.75;38.14;100484.63;5114381;28;20104;-78
2023/07/11 11:34:17;;;;;;;9.55;2.53;;;;;;;28.75;40.34;100478.75;5112999;28;20031;-78